Time;durP1;ratioP1;P1;durP2;ratioP2;P2;SDS_P1;SDS_P2;PMS_P1;PMS_P2;Temp;Humidity;BMP_temperature;BMP_pressure;BME280_temperature;BME280_humidity;BME280_pressure;Samples;Min_cycle;Max_cycle;Signal;HPM_P1;HPM_P2
2023/01/03 00:01:18;;;;;;;7.43;4.63;;;9.00;85.90;;;;;;5077590;28;20031;-64
2023/01/03 00:03:44;;;;;;;7.35;3.97;;;9.00;85.80;;;;;;5097480;28;20036;-63
2023/01/03 00:06:24;;;;;;;5.07;3.88;;;9.00;85.80;;;;;;5082365;28;20099;-63
2023/01/03 00:08:50;;;;;;;8.32;4.65;;;8.90;85.80;;;;;;5091884;28;20040;-63
2023/01/03 00:12:22;;;;;;;9.55;4.97;;;8.90;86.00;;;;;;5096964;28;20043;-64
2023/01/03 00:14:09;;;;;;;6.03;4.30;;;8.80;85.90;;;;;;5103301;28;20027;-64
2023/01/03 00:16:35;;;;;;;7.47;4.40;;;8.80;86.00;;;;;;5093205;28;20265;-59
2023/01/03 00:19:06;;;;;;;8.50;4.60;;;8.80;85.90;;;;;;5072150;28;20032;-64
2023/01/03 00:21:31;;;;;;;6.95;4.50;;;8.80;85.90;;;;;;5067460;28;20028;-64
2023/01/03 00:23:57;;;;;;;6.45;4.03;;;8.80;85.90;;;;;;5092997;28;20492;-64
2023/01/03 00:26:23;;;;;;;6.75;4.20;;;8.80;85.90;;;;;;5089447;28;20089;-64
2023/01/03 00:28:48;;;;;;;4.55;3.55;;;8.80;85.90;;;;;;5071893;28;20387;-58
2023/01/03 00:31:14;;;;;;;6.45;3.80;;;8.80;85.80;;;;;;5073802;28;20032;-63
2023/01/03 00:33:40;;;;;;;5.75;3.90;;;8.90;85.80;;;;;;5073125;28;20036;-64
2023/01/03 00:36:08;;;;;;;7.75;3.97;;;8.80;85.70;;;;;;5069886;28;20034;-64
2023/01/03 00:38:35;;;;;;;5.63;3.83;;;8.80;85.80;;;;;;5095006;28;20062;-64
2023/01/03 00:41:11;;;;;;;6.47;4.90;;;8.90;85.80;;;;;;5084035;28;20097;-64
2023/01/03 00:43:38;;;;;;;7.72;4.32;;;8.80;85.70;;;;;;5103392;28;20487;-64
2023/01/03 00:46:05;;;;;;;8.00;5.10;;;8.80;85.80;;;;;;5100812;28;20019;-64
2023/01/03 00:48:31;;;;;;;7.63;3.92;;;8.70;85.90;;;;;;5098109;28;20050;-58
2023/01/03 00:51:03;;;;;;;5.63;3.55;;;8.70;86.60;;;;;;5071087;28;20069;-59
2023/01/03 00:53:28;;;;;;;7.15;4.13;;;8.70;86.00;;;;;;5091072;28;20032;-58
2023/01/03 00:55:54;;;;;;;6.97;3.35;;;8.70;86.00;;;;;;5080764;28;20111;-58
2023/01/03 00:58:20;;;;;;;7.28;3.83;;;8.60;85.90;;;;;;5090434;28;20115;-58
2023/01/03 01:00:46;;;;;;;7.00;4.80;;;8.60;86.00;;;;;;5098897;28;20242;-59
2023/01/03 01:03:12;;;;;;;6.80;4.18;;;8.60;86.10;;;;;;5092917;28;20851;-59
2023/01/03 01:05:37;;;;;;;6.82;4.43;;;8.60;86.20;;;;;;5077651;28;20028;-64
2023/01/03 01:08:03;;;;;;;7.20;4.45;;;8.60;86.20;;;;;;5098834;28;20051;-58
2023/01/03 01:10:29;;;;;;;6.35;3.92;;;8.60;86.20;;;;;;5077231;28;20044;-58
2023/01/03 01:12:55;;;;;;;8.65;4.18;;;8.60;86.00;;;;;;5090728;28;20036;-64
2023/01/03 01:15:21;;;;;;;5.68;4.25;;;8.60;86.00;;;;;;5070578;28;20429;-64
2023/01/03 01:17:47;;;;;;;6.05;4.57;;;8.60;85.90;;;;;;5089498;28;20024;-63
2023/01/03 01:20:13;;;;;;;6.55;3.92;;;8.60;85.90;;;;;;5096605;28;20103;-63
2023/01/03 01:22:39;;;;;;;9.10;5.50;;;8.70;85.90;;;;;;5089470;28;20028;-58
2023/01/03 01:25:05;;;;;;;8.63;4.30;;;8.70;85.80;;;;;;5076318;28;20391;-58
2023/01/03 01:27:31;;;;;;;6.68;4.22;;;8.80;85.70;;;;;;5099225;28;20082;-59
2023/01/03 01:29:56;;;;;;;7.15;4.68;;;8.80;85.60;;;;;;5097320;28;20374;-59
2023/01/03 01:32:22;;;;;;;9.63;4.30;;;8.90;85.50;;;;;;5068088;28;20557;-59
2023/01/03 01:34:48;;;;;;;7.90;4.78;;;8.90;85.40;;;;;;5070339;28;20162;-59
2023/01/03 01:37:14;;;;;;;6.28;4.05;;;8.90;85.50;;;;;;5104824;28;20051;-58
2023/01/03 01:39:40;;;;;;;6.70;4.43;;;8.90;85.60;;;;;;5088363;28;20110;-58
2023/01/03 01:45:01;;;;;;;7.35;5.13;;;9.00;85.50;;;;;;5097234;28;20107;-58
2023/01/03 01:47:41;;;;;;;6.87;4.07;;;9.00;85.60;;;;;;5089149;28;20032;-58
2023/01/03 01:50:10;;;;;;;6.03;3.97;;;9.00;85.60;;;;;;5086560;28;20047;-58
2023/01/03 01:52:40;;;;;;;8.07;4.43;;;9.00;85.70;;;;;;5072801;28;20043;-58
2023/01/03 01:55:11;;;;;;;9.90;5.88;;;9.00;85.70;;;;;;5088032;28;20425;-58
2023/01/03 01:57:39;;;;;;;8.85;4.35;;;9.00;85.60;;;;;;5070866;28;20040;-63
2023/01/03 02:00:07;;;;;;;7.32;5.05;;;8.90;85.50;;;;;;5093394;28;20044;-63
2023/01/03 02:02:33;;;;;;;6.28;3.53;;;8.90;85.60;;;;;;5079442;28;20474;-63
2023/01/03 02:05:01;;;;;;;6.95;5.25;;;9.00;85.50;;;;;;5096340;28;20029;-63
2023/01/03 02:07:27;;;;;;;7.40;4.60;;;9.00;85.50;;;;;;5107150;28;20027;-64
2023/01/03 02:09:56;;;;;;;11.85;5.55;;;9.00;85.60;;;;;;5088414;28;20081;-64
2023/01/03 02:13:04;;;;;;;12.98;5.13;;;9.00;85.60;;;;;;5105969;28;20490;-58
2023/01/03 02:15:45;;;;;;;7.30;5.55;;;9.00;85.50;;;;;;5084504;28;20133;-59
2023/01/03 02:18:14;;;;;;;7.47;5.28;;;8.90;85.60;;;;;;5093335;28;20059;-64
2023/01/03 02:21:08;;;;;;;9.40;5.38;;;8.80;85.90;;;;;;5108806;28;20024;-64
2023/01/03 02:23:50;;;;;;;11.07;7.32;;;8.80;86.00;;;;;;5103516;28;20032;-58
2023/01/03 02:26:43;;;;;;;8.60;6.05;;;8.80;86.00;;;;;;5102783;28;20024;-58
2023/01/03 02:29:24;;;;;;;10.20;6.55;;;8.80;86.00;;;;;;5099295;28;20064;-58
2023/01/03 02:32:12;;;;;;;9.00;5.47;;;8.70;86.20;;;;;;5102688;28;20127;-58
2023/01/03 02:35:08;;;;;;;7.65;5.50;;;8.70;86.20;;;;;;5101059;28;20054;-58
2023/01/03 02:37:43;;;;;;;9.20;5.53;;;8.70;86.20;;;;;;5104316;28;20024;-58
2023/01/03 02:40:18;;;;;;;7.93;5.93;;;8.60;86.30;;;;;;5090607;28;20043;-58
2023/01/03 02:43:13;;;;;;;9.68;6.55;;;8.60;86.40;;;;;;5094892;28;20036;-59
2023/01/03 02:45:58;;;;;;;10.70;5.95;;;8.70;86.40;;;;;;5043986;28;20115;-58
2023/01/03 02:49:16;;;;;;;11.23;5.88;;;8.70;86.30;;;;;;5092984;28;20085;-64
2023/01/03 02:51:45;;;;;;;9.75;6.97;;;8.70;86.10;;;;;;5059146;28;20068;-64
2023/01/03 02:54:17;;;;;;;9.23;5.88;;;8.70;86.30;;;;;;5092392;28;20024;-64
2023/01/03 02:56:57;;;;;;;8.07;4.43;;;8.70;86.30;;;;;;5094508;28;20070;-64
2023/01/03 02:59:38;;;;;;;8.95;4.97;;;8.70;86.20;;;;;;5091935;28;20035;-64
2023/01/03 03:02:05;;;;;;;9.57;6.55;;;8.70;86.20;;;;;;5081292;28;20031;-63
2023/01/03 03:04:34;;;;;;;9.77;6.40;;;8.80;86.20;;;;;;5092071;28;20023;-59
2023/01/03 03:07:06;;;;;;;9.70;6.35;;;8.80;86.10;;;;;;5092157;28;20058;-63
2023/01/03 03:13:11;;;;;;;9.60;6.13;;;8.80;85.90;;;;;;5098899;28;20097;-64
2023/01/03 03:15:04;;;;;;;10.90;6.28;;;8.70;85.90;;;;;;5073252;28;20043;-64
2023/01/03 03:17:30;;;;;;;10.68;6.05;;;8.70;86.20;;;;;;5095001;28;20038;-64
2023/01/03 03:25:49;;;;;;;9.13;5.60;;;8.70;86.20;;;;;;5086159;28;20443;-58
2023/01/03 03:28:34;;;;;;;5.97;5.07;;;8.60;86.30;;;;;;5075485;28;20596;-64
2023/01/03 03:31:14;;;;;;;10.60;6.68;;;8.60;86.30;;;;;;5086573;28;20020;-59
2023/01/03 03:33:48;;;;;;;10.93;6.80;;;8.60;86.20;;;;;;5087041;28;20088;-58
2023/01/03 03:36:28;;;;;;;9.25;6.40;;;8.60;86.30;;;;;;5096075;28;20506;-59
2023/01/03 03:38:54;;;;;;;10.35;6.85;;;8.50;86.50;;;;;;5090311;28;20059;-59
2023/01/03 03:47:45;;;;;;;10.50;6.55;;;8.50;86.50;;;;;;5099509;28;20074;-59
2023/01/03 03:50:22;;;;;;;13.35;6.15;;;8.60;86.30;;;;;;5088683;28;20024;-64
2023/01/03 03:52:54;;;;;;;9.35;7.10;;;8.60;86.30;;;;;;5105081;28;20051;-64
2023/01/03 03:55:34;;;;;;;13.13;7.35;;;8.70;86.20;;;;;;5108402;28;20024;-59
2023/01/03 03:58:10;;;;;;;13.48;7.93;;;8.70;86.00;;;;;;5105712;28;20065;-58
2023/01/03 04:00:40;;;;;;;12.00;7.65;;;8.70;86.00;;;;;;5107815;28;20100;-63
2023/01/03 04:03:08;;;;;;;9.38;7.03;;;8.70;86.20;;;;;;5091926;28;20028;-59
2023/01/03 04:05:39;;;;;;;7.45;6.53;;;8.60;86.00;;;;;;5101878;28;20015;-58
2023/01/03 04:08:06;;;;;;;12.27;8.27;;;8.70;86.20;;;;;;5107522;28;20069;-59
2023/01/03 04:10:31;;;;;;;12.18;7.22;;;8.70;86.20;;;;;;5108115;28;20073;-59
2023/01/03 04:12:57;;;;;;;12.45;7.20;;;8.80;86.10;;;;;;5102089;28;20455;-62
2023/01/03 04:15:23;;;;;;;10.70;7.35;;;8.80;86.00;;;;;;5082828;28;20024;-63
2023/01/03 04:17:49;;;;;;;13.40;7.05;;;8.80;86.00;;;;;;5099249;28;20111;-64
2023/01/03 04:20:14;;;;;;;15.15;7.45;;;8.90;85.90;;;;;;5103103;28;20036;-59
2023/01/03 04:22:40;;;;;;;12.70;6.13;;;8.80;85.80;;;;;;5075532;28;20035;-58
2023/01/03 04:25:06;;;;;;;7.95;5.95;;;8.80;85.90;;;;;;5106276;28;20028;-59
2023/01/03 04:27:32;;;;;;;9.13;6.47;;;8.70;85.80;;;;;;5087921;28;20115;-64
2023/01/03 04:29:58;;;;;;;12.35;7.30;;;8.70;85.90;;;;;;5088057;28;20102;-58
2023/01/03 04:32:24;;;;;;;8.52;5.65;;;8.60;85.90;;;;;;5107180;28;20447;-63
2023/01/03 04:34:49;;;;;;;9.73;5.75;;;8.60;86.40;;;;;;5077999;28;20409;-64
2023/01/03 04:37:15;;;;;;;9.95;5.80;;;8.60;85.80;;;;;;5105402;28;20027;-64
2023/01/03 04:39:41;;;;;;;8.20;5.38;;;8.60;85.80;;;;;;5087290;28;20023;-63
2023/01/03 04:44:51;;;;;;;10.73;5.88;;;8.40;85.80;;;;;;5100522;28;20054;-58
2023/01/03 04:47:17;;;;;;;8.35;5.70;;;8.40;86.00;;;;;;5106384;28;20020;-62
2023/01/03 04:49:45;;;;;;;8.93;6.63;;;8.40;85.90;;;;;;5079450;28;20475;-62
2023/01/03 04:52:11;;;;;;;9.10;5.03;;;8.40;85.80;;;;;;5086742;28;20069;-58
2023/01/03 04:54:38;;;;;;;6.90;4.38;;;8.40;85.70;;;;;;5106493;28;20548;-57
2023/01/03 04:57:04;;;;;;;12.73;4.88;;;8.30;86.00;;;;;;5108224;28;20531;-63
2023/01/03 04:59:29;;;;;;;9.25;5.40;;;8.30;86.00;;;;;;5105179;28;20049;-62
2023/01/03 05:01:55;;;;;;;8.85;5.78;;;8.30;85.90;;;;;;5096499;28;20039;-62
2023/01/03 05:04:21;;;;;;;8.45;6.32;;;8.20;85.80;;;;;;5102569;28;20336;-62
2023/01/03 05:06:47;;;;;;;5.78;4.35;;;8.20;86.20;;;;;;5100904;28;20038;-62
2023/01/03 05:09:12;;;;;;;7.13;4.45;;;8.20;85.60;;;;;;5072026;28;20496;-62
2023/01/03 05:11:38;;;;;;;9.60;5.45;;;8.20;85.50;;;;;;5094027;28;20032;-57
2023/01/03 05:14:04;;;;;;;8.82;4.97;;;8.10;85.40;;;;;;5088784;28;20111;-63
2023/01/03 05:16:29;;;;;;;10.85;5.93;;;8.10;85.30;;;;;;5094298;28;20555;-63
2023/01/03 05:18:55;;;;;;;10.07;4.82;;;8.00;85.40;;;;;;5089879;28;20020;-58
2023/01/03 05:26:54;;;;;;;5.68;4.35;;;8.00;85.20;;;;;;5091299;28;20047;-59
2023/01/03 05:29:21;;;;;;;9.32;5.05;;;8.00;85.20;;;;;;5078303;28;20040;-58
2023/01/03 05:31:47;;;;;;;7.18;4.43;;;8.00;85.10;;;;;;5084038;28;20061;-57
2023/01/03 05:34:12;;;;;;;10.73;5.15;;;8.00;85.00;;;;;;5062889;28;20020;-58
2023/01/03 05:36:38;;;;;;;6.68;4.65;;;8.10;85.00;;;;;;5092574;28;20050;-58
2023/01/03 05:39:04;;;;;;;17.77;5.38;;;8.00;84.80;;;;;;5107512;28;20027;-58
2023/01/03 05:44:15;;;;;;;7.00;4.13;;;7.90;84.60;;;;;;5103323;28;20039;-58
2023/01/03 05:46:41;;;;;;;10.40;4.32;;;7.90;84.60;;;;;;5099704;28;20076;-58
2023/01/03 05:49:07;;;;;;;6.43;3.45;;;7.80;84.60;;;;;;5103403;28;20028;-63
2023/01/03 05:51:33;;;;;;;4.85;3.47;;;7.80;84.60;;;;;;5105226;28;20396;-63
2023/01/03 05:53:58;;;;;;;6.65;4.35;;;7.70;84.60;;;;;;5102140;28;20093;-58
2023/01/03 05:56:24;;;;;;;7.03;4.00;;;7.70;84.50;;;;;;5087168;28;20028;-63
2023/01/03 05:58:50;;;;;;;5.32;3.90;;;7.60;84.40;;;;;;5099295;28;20060;-63
2023/01/03 06:01:16;;;;;;;7.90;3.53;;;7.60;84.50;;;;;;5085569;28;20044;-63
2023/01/03 06:03:44;;;;;;;4.70;3.58;;;7.60;84.60;;;;;;5069883;28;20052;-59
2023/01/03 06:06:11;;;;;;;6.25;3.63;;;7.60;84.60;;;;;;5099488;28;20438;-64
2023/01/03 06:08:37;;;;;;;6.35;4.05;;;7.60;84.40;;;;;;5097165;28;20057;-64
2023/01/03 06:11:08;;;;;;;9.55;3.85;;;7.50;84.30;;;;;;5095326;28;20028;-58
2023/01/03 06:13:34;;;;;;;8.55;3.67;;;7.50;84.30;;;;;;5095857;28;20153;-59
2023/01/03 06:18:52;;;;;;;7.97;3.95;;;7.40;83.90;;;;;;5096364;28;20528;-59
2023/01/03 06:21:18;;;;;;;5.97;3.95;;;7.30;83.80;;;;;;5093621;28;20024;-58
2023/01/03 06:23:46;;;;;;;4.72;3.72;;;7.30;83.60;;;;;;5084301;28;20887;-59
2023/01/03 06:26:13;;;;;;;8.02;3.60;;;7.30;83.50;;;;;;5104476;28;20069;-63
2023/01/03 06:28:39;;;;;;;8.40;4.53;;;7.30;83.40;;;;;;5100420;28;20067;-63
2023/01/03 06:31:05;;;;;;;8.02;4.40;;;7.20;83.40;;;;;;5092206;28;20063;-64
2023/01/03 06:33:31;;;;;;;8.05;4.47;;;7.20;83.30;;;;;;5099389;28;20543;-64
2023/01/03 06:36:04;;;;;;;9.57;4.53;;;7.20;83.10;;;;;;5091910;28;20495;-59
2023/01/03 06:38:30;;;;;;;4.97;4.03;;;7.20;82.90;;;;;;5068626;28;20514;-59
2023/01/03 06:40:56;;;;;;;5.88;3.88;;;7.20;82.90;;;;;;5090662;28;20052;-59
2023/01/03 06:43:22;;;;;;;5.95;3.92;;;7.20;82.80;;;;;;5096982;28;20394;-58
2023/01/03 06:54:05;;;;;;;10.75;3.85;;;7.20;82.80;;;;;;5099262;28;20093;-58
2023/01/03 06:56:31;;;;;;;9.52;4.53;;;7.20;82.80;;;;;;5093184;28;20020;-64
2023/01/03 06:58:56;;;;;;;5.22;3.58;;;7.20;82.70;;;;;;5093781;28;20038;-59
2023/01/03 07:01:22;;;;;;;6.15;3.08;;;7.20;82.70;;;;;;5093989;28;20054;-58
2023/01/03 07:03:48;;;;;;;4.30;3.03;;;7.10;82.70;;;;;;5073180;28;20024;-58
2023/01/03 07:06:14;;;;;;;5.70;3.65;;;7.10;82.60;;;;;;5090792;28;20372;-58
2023/01/03 07:08:40;;;;;;;4.85;3.17;;;7.10;82.60;;;;;;5097374;28;20050;-63
2023/01/03 07:11:06;;;;;;;5.03;3.72;;;7.10;82.50;;;;;;5092067;28;20024;-63
2023/01/03 07:16:18;;;;;;;8.27;3.97;;;7.00;82.40;;;;;;5089571;28;20400;-63
2023/01/03 07:18:44;;;;;;;7.40;4.03;;;7.00;82.40;;;;;;5093033;28;20135;-63
2023/01/03 07:21:10;;;;;;;6.47;3.83;;;6.90;82.30;;;;;;5090899;28;20016;-63
2023/01/03 07:23:37;;;;;;;4.70;2.83;;;6.90;82.20;;;;;;5074667;28;20032;-65
2023/01/03 07:26:03;;;;;;;6.13;4.53;;;6.90;82.20;;;;;;5095304;28;20027;-63
2023/01/03 07:28:29;;;;;;;7.50;3.22;;;6.90;82.10;;;;;;5088191;28;20031;-63
2023/01/03 07:31:00;;;;;;;5.43;3.97;;;6.90;82.10;;;;;;5101578;28;20020;-63
2023/01/03 07:33:26;;;;;;;5.68;3.88;;;6.90;82.10;;;;;;5095490;28;20467;-63
2023/01/03 07:35:51;;;;;;;6.80;3.55;;;6.80;82.10;;;;;;5108611;28;20026;-63
2023/01/03 07:38:17;;;;;;;3.83;2.75;;;6.80;82.20;;;;;;5090648;28;20036;-63
2023/01/03 07:40:43;;;;;;;9.60;3.28;;;6.80;82.30;;;;;;5097465;28;20020;-63
2023/01/03 07:45:56;;;;;;;6.47;4.13;;;6.90;82.10;;;;;;5099006;28;20050;-63
2023/01/03 07:48:22;;;;;;;4.95;3.70;;;6.90;82.30;;;;;;5081484;28;20023;-63
2023/01/03 07:50:47;;;;;;;5.38;3.80;;;6.90;82.20;;;;;;5094651;28;20444;-63
2023/01/03 07:53:15;;;;;;;5.20;3.35;;;6.90;82.20;;;;;;5102081;28;20032;-58
2023/01/03 07:55:43;;;;;;;4.63;3.58;;;7.00;82.30;;;;;;5099133;28;20035;-58
2023/01/03 07:58:09;;;;;;;7.68;3.83;;;7.00;82.40;;;;;;5100170;28;20032;-58
2023/01/03 08:00:35;;;;;;;7.18;4.75;;;7.10;82.40;;;;;;5080836;28;20052;-58
2023/01/03 08:03:01;;;;;;;8.70;4.60;;;7.10;82.60;;;;;;5087458;28;20074;-63
2023/01/03 08:05:27;;;;;;;7.45;4.97;;;7.10;82.60;;;;;;5089139;28;20039;-63
2023/01/03 08:07:52;;;;;;;7.82;4.47;;;7.20;82.70;;;;;;5089671;28;20418;-58
2023/01/03 08:13:16;;;;;;;7.05;3.88;;;7.30;82.90;;;;;;5089172;28;20497;-63
2023/01/03 08:15:54;;;;;;;6.63;3.95;;;7.30;82.90;;;;;;5075707;28;20068;-59
2023/01/03 08:18:28;;;;;;;5.47;3.70;;;7.40;83.00;;;;;;5082781;28;20046;-58
2023/01/03 08:20:56;;;;;;;4.75;3.13;;;7.40;83.00;;;;;;5085934;28;20058;-59
2023/01/03 08:23:23;;;;;;;5.40;4.00;;;7.40;83.10;;;;;;5092376;28;20111;-59
2023/01/03 08:25:49;;;;;;;9.35;4.97;;;7.50;83.10;;;;;;5101081;28;20020;-64
2023/01/03 08:28:14;;;;;;;5.50;4.18;;;7.50;83.10;;;;;;5089502;28;20034;-64
2023/01/03 08:30:45;;;;;;;5.93;4.00;;;7.50;83.20;;;;;;5088340;28;20099;-59
2023/01/03 08:33:14;;;;;;;4.10;2.95;;;7.50;83.30;;;;;;5083474;28;20031;-60
2023/01/03 08:35:45;;;;;;;6.45;4.00;;;7.60;83.40;;;;;;5083003;28;20111;-60
2023/01/03 08:38:17;;;;;;;6.00;4.15;;;7.60;83.40;;;;;;5086535;28;20012;-68
2023/01/03 08:40:44;;;;;;;4.72;3.30;;;7.60;83.40;;;;;;5098255;28;20786;-64
2023/01/03 08:43:13;;;;;;;5.00;3.47;;;7.60;83.50;;;;;;5099728;28;20040;-64
2023/01/03 08:45:39;;;;;;;6.25;4.05;;;7.70;83.50;;;;;;5088222;28;20027;-65
2023/01/03 08:48:06;;;;;;;8.98;3.95;;;7.70;83.50;;;;;;5090746;28;20475;-60
2023/01/03 08:50:33;;;;;;;4.30;3.00;;;7.70;83.60;;;;;;5097672;28;20040;-60
2023/01/03 08:52:59;;;;;;;5.72;3.42;;;7.70;83.60;;;;;;5089004;28;20016;-59
2023/01/03 08:55:25;;;;;;;4.50;3.28;;;7.80;83.70;;;;;;5066163;28;20031;-60
2023/01/03 08:57:50;;;;;;;4.47;2.97;;;7.80;83.70;;;;;;5087671;28;20032;-60
2023/01/03 09:00:16;;;;;;;4.88;3.40;;;7.80;83.80;;;;;;5083569;28;20108;-61
2023/01/03 09:02:42;;;;;;;6.75;2.90;;;7.90;83.80;;;;;;5095489;28;20051;-61
2023/01/03 09:05:08;;;;;;;4.97;3.53;;;7.90;83.90;;;;;;5094380;28;20027;-61
2023/01/03 09:07:34;;;;;;;5.60;4.00;;;7.90;83.90;;;;;;5081081;28;20025;-60
2023/01/03 09:10:00;;;;;;;4.30;2.70;;;7.90;83.90;;;;;;5077288;28;20036;-60
2023/01/03 09:12:26;;;;;;;13.82;3.00;;;8.00;84.00;;;;;;5098749;28;20020;-60
2023/01/03 09:14:52;;;;;;;5.35;3.33;;;8.00;84.10;;;;;;5085870;28;20504;-60
2023/01/03 09:17:17;;;;;;;4.30;3.10;;;8.00;84.20;;;;;;5080589;28;20116;-60
2023/01/03 09:19:43;;;;;;;7.63;3.95;;;8.00;84.20;;;;;;5082807;28;20493;-60
2023/01/03 09:22:09;;;;;;;4.10;2.70;;;8.00;84.20;;;;;;5080775;28;20031;-59
2023/01/03 09:24:34;;;;;;;7.72;3.40;;;8.10;84.30;;;;;;5089592;28;20028;-60
2023/01/03 09:27:00;;;;;;;4.03;3.15;;;8.10;84.30;;;;;;5083849;28;20021;-65
2023/01/03 09:29:26;;;;;;;4.38;3.22;;;8.10;84.40;;;;;;5082890;28;20116;-59
2023/01/03 09:31:51;;;;;;;3.75;2.80;;;8.10;84.50;;;;;;5073173;28;20031;-60
2023/01/03 09:34:17;;;;;;;4.40;2.42;;;8.10;84.40;;;;;;5071187;28;20031;-59
2023/01/03 09:36:43;;;;;;;5.18;3.10;;;8.10;84.50;;;;;;5071022;28;20063;-59
2023/01/03 09:39:09;;;;;;;5.70;3.42;;;8.20;84.70;;;;;;5072194;28;20375;-59
2023/01/03 09:41:37;;;;;;;4.72;2.70;;;8.20;84.70;;;;;;5095713;28;20034;-68
2023/01/03 09:44:05;;;;;;;2.53;1.98;;;8.30;84.90;;;;;;5101028;28;20121;-68
2023/01/03 09:46:34;;;;;;;5.57;3.03;;;8.30;84.80;;;;;;5073520;28;20108;-68
2023/01/03 09:49:01;;;;;;;4.78;2.90;;;8.30;84.90;;;;;;5092858;28;20040;-68
2023/01/03 10:06:18;;;;;;;4.88;3.13;;;8.40;85.80;;;;;;5095110;28;20144;-68
2023/01/03 10:08:50;;;;;;;7.35;3.63;;;8.40;85.70;;;;;;5093818;28;20024;-68
2023/01/03 10:11:57;;;;;;;5.35;3.00;;;8.40;85.90;;;;;;5090274;28;20416;-59
2023/01/03 10:14:26;;;;;;;11.25;3.70;;;8.50;85.90;;;;;;5030237;28;20040;-59
2023/01/03 10:17:20;;;;;;;6.75;3.70;;;8.50;86.20;;;;;;5089961;28;20055;-59
2023/01/03 10:20:10;;;;;;;5.20;3.30;;;8.50;86.30;;;;;;5060176;28;20118;-68
2023/01/03 10:22:37;;;;;;;4.97;3.47;;;8.50;86.40;;;;;;5087496;28;20059;-68
2023/01/03 10:25:03;;;;;;;5.85;4.22;;;8.50;86.50;;;;;;5079431;28;20028;-68
2023/01/03 10:27:55;;;;;;;8.45;4.85;;;8.60;86.70;;;;;;5070650;28;20046;-59
2023/01/03 10:30:30;;;;;;;5.90;3.63;;;8.60;86.50;;;;;;5092296;28;20434;-68
2023/01/03 10:33:02;;;;;;;6.53;2.83;;;8.70;86.60;;;;;;5069245;28;20128;-68
2023/01/03 10:35:32;;;;;;;4.77;3.33;;;8.70;86.60;;;;;;5064714;28;20023;-58
2023/01/03 10:37:59;;;;;;;5.60;3.25;;;8.70;86.70;;;;;;5085438;28;20139;-69
2023/01/03 10:40:43;;;;;;;10.57;4.32;;;8.80;87.40;;;;;;5088304;28;20039;-70
2023/01/03 10:43:16;;;;;;;7.45;4.32;;;8.80;86.80;;;;;;5091422;28;20028;-60
2023/01/03 10:45:53;;;;;;;3.42;2.67;;;8.70;87.10;;;;;;5085262;28;20056;-58
2023/01/03 10:48:19;;;;;;;5.00;2.92;;;8.80;87.10;;;;;;5079811;28;20586;-60
2023/01/03 10:50:45;;;;;;;3.95;2.83;;;8.80;87.10;;;;;;5089053;28;20019;-68
2023/01/03 10:53:14;;;;;;;3.45;2.88;;;8.80;87.10;;;;;;5084245;28;20054;-69
2023/01/03 10:55:46;;;;;;;6.85;3.38;;;8.90;87.00;;;;;;5088999;28;20017;-69
2023/01/03 10:58:27;;;;;;;4.32;2.67;;;8.90;86.80;;;;;;5073052;28;20078;-69
2023/01/03 11:01:08;;;;;;;4.32;2.83;;;9.00;86.80;;;;;;5082603;28;20090;-67
2023/01/03 11:03:33;;;;;;;5.05;2.80;;;9.00;86.90;;;;;;5089848;28;20017;-68
2023/01/03 11:05:59;;;;;;;3.90;2.63;;;9.00;86.80;;;;;;5087065;28;20031;-67
2023/01/03 11:08:47;;;;;;;8.88;3.20;;;9.10;86.70;;;;;;5087873;28;20080;-68
2023/01/03 11:11:32;;;;;;;4.50;2.80;;;9.10;86.70;;;;;;5091752;28;20039;-59
2023/01/03 11:14:20;;;;;;;5.47;2.47;;;9.10;86.60;;;;;;5088151;28;20050;-59
2023/01/03 11:16:53;;;;;;;3.25;2.25;;;9.10;86.80;;;;;;5087258;28;20024;-67
2023/01/03 11:19:19;;;;;;;8.57;3.10;;;9.20;86.90;;;;;;5090761;28;20028;-67
2023/01/03 11:21:50;;;;;;;3.97;2.08;;;9.20;86.70;;;;;;5093039;28;20102;-67
2023/01/03 11:24:39;;;;;;;3.63;2.45;;;9.20;86.70;;;;;;5097563;28;20019;-59
2023/01/03 11:27:13;;;;;;;3.88;2.85;;;9.30;86.60;;;;;;5089708;28;20039;-60
2023/01/03 11:29:53;;;;;;;3.50;2.67;;;9.30;86.60;;;;;;5088899;28;20024;-59
2023/01/03 11:32:50;;;;;;;3.85;2.78;;;9.30;86.70;;;;;;5087738;28;20082;-59
2023/01/03 11:35:35;;;;;;;5.28;2.90;;;9.30;86.80;;;;;;5082884;28;20028;-68
2023/01/03 11:38:10;;;;;;;11.77;3.65;;;9.30;87.00;;;;;;5088307;28;20038;-67
2023/01/03 11:40:54;;;;;;;3.67;2.58;;;9.20;87.20;;;;;;5081986;28;20047;-59
2023/01/03 11:43:56;;;;;;;4.45;2.60;;;9.30;87.40;;;;;;5089221;28;20020;-59
2023/01/03 11:46:25;;;;;;;3.70;2.28;;;9.30;87.20;;;;;;5088665;28;20049;-59
2023/01/03 11:49:06;;;;;;;4.15;2.60;;;9.30;87.10;;;;;;5080907;28;20051;-59
2023/01/03 11:51:32;;;;;;;11.65;2.88;;;9.30;87.00;;;;;;5085953;28;20030;-59
2023/01/03 11:54:04;;;;;;;2.75;2.00;;;9.30;87.00;;;;;;5080524;28;20039;-60
2023/01/03 11:56:37;;;;;;;2.67;2.10;;;9.30;87.10;;;;;;5097120;28;20446;-59
2023/01/03 11:59:23;;;;;;;5.05;2.83;;;9.30;87.20;;;;;;5101510;28;20494;-68
2023/01/03 12:02:16;;;;;;;2.97;2.13;;;9.30;87.10;;;;;;5086165;28;20041;-67
2023/01/03 12:05:09;;;;;;;4.40;2.05;;;9.40;87.20;;;;;;5090543;28;20036;-68
2023/01/03 12:07:52;;;;;;;4.28;2.88;;;9.30;87.20;;;;;;5103251;28;20100;-59
2023/01/03 12:10:29;;;;;;;5.68;2.88;;;9.30;87.30;;;;;;5097008;28;20020;-59
2023/01/03 12:13:26;;;;;;;3.33;2.53;;;9.40;87.30;;;;;;5090211;28;20646;-59
2023/01/03 12:16:23;;;;;;;4.78;2.97;;;9.40;87.20;;;;;;5050496;28;20046;-59
2023/01/03 12:18:59;;;;;;;2.58;1.75;;;9.40;87.30;;;;;;5087617;28;20027;-59
2023/01/03 12:21:39;;;;;;;4.53;2.72;;;9.40;87.30;;;;;;5091259;28;20386;-59
2023/01/03 12:24:25;;;;;;;3.60;2.15;;;9.40;87.20;;;;;;5067607;28;20043;-67
2023/01/03 12:26:55;;;;;;;4.28;2.70;;;9.50;87.30;;;;;;5074471;28;20477;-68
2023/01/03 12:29:30;;;;;;;2.63;1.98;;;9.40;87.30;;;;;;5088170;28;20486;-67
2023/01/03 12:32:17;;;;;;;5.65;3.25;;;9.50;87.30;;;;;;5089410;28;20028;-59
2023/01/03 12:35:14;;;;;;;2.75;1.90;;;9.50;87.30;;;;;;5087599;28;21123;-68
2023/01/03 12:37:40;;;;;;;3.00;2.05;;;9.50;87.30;;;;;;5094535;28;20063;-68
2023/01/03 12:40:17;;;;;;;2.47;1.88;;;9.50;87.20;;;;;;5095722;28;20024;-68
2023/01/03 12:42:56;;;;;;;3.60;2.17;;;9.60;87.00;;;;;;5090038;28;20094;-68
2023/01/03 12:45:56;;;;;;;3.22;1.88;;;9.60;86.80;;;;;;5081833;28;20482;-68
2023/01/03 12:48:36;;;;;;;3.03;2.28;;;9.60;86.60;;;;;;5062673;28;20059;-68
2023/01/03 12:51:02;;;;;;;3.58;2.60;;;9.60;86.40;;;;;;5089934;28;20382;-60
2023/01/03 12:53:50;;;;;;;9.80;2.05;;;9.70;86.40;;;;;;5089610;28;20029;-67
2023/01/03 12:56:37;;;;;;;5.03;2.53;;;9.70;86.30;;;;;;5091416;28;20383;-59
2023/01/03 12:59:35;;;;;;;4.45;2.13;;;9.70;86.30;;;;;;5088718;28;20028;-59
2023/01/03 13:02:37;;;;;;;2.90;1.92;;;9.70;86.30;;;;;;5085074;28;20056;-68
2023/01/03 13:05:25;;;;;;;5.65;2.05;;;9.70;86.20;;;;;;5093140;28;20027;-68
2023/01/03 13:08:09;;;;;;;4.35;2.17;;;9.80;86.10;;;;;;5087213;28;20463;-60
2023/01/03 13:10:39;;;;;;;4.72;2.42;;;9.70;86.00;;;;;;5090091;28;20402;-68
2023/01/03 13:13:05;;;;;;;2.42;1.77;;;9.80;86.00;;;;;;5088985;28;20364;-59
2023/01/03 13:15:33;;;;;;;2.53;2.28;;;9.80;85.80;;;;;;5088288;28;20487;-59
2023/01/03 13:18:21;;;;;;;5.07;3.13;;;9.90;85.70;;;;;;5078547;28;20415;-59
2023/01/03 13:20:48;;;;;;;2.53;1.83;;;9.90;85.50;;;;;;5083430;28;20040;-68
2023/01/03 13:23:34;;;;;;;4.78;2.63;;;10.00;85.30;;;;;;5080894;28;20040;-60
2023/01/03 13:26:05;;;;;;;3.55;2.00;;;10.10;85.10;;;;;;5093891;28;20052;-60
2023/01/03 13:28:35;;;;;;;3.13;2.05;;;10.00;84.80;;;;;;5074339;28;20040;-68
2023/01/03 13:31:18;;;;;;;5.40;1.98;;;10.00;84.70;;;;;;5077931;28;20481;-60
2023/01/03 13:34:08;;;;;;;5.57;2.35;;;10.00;84.60;;;;;;5084202;28;20052;-68
2023/01/03 13:37:05;;;;;;;3.78;2.47;;;10.00;84.70;;;;;;5095130;28;20046;-68
2023/01/03 13:39:43;;;;;;;6.45;2.38;;;10.00;84.50;;;;;;5079189;28;20021;-59
2023/01/03 13:42:33;;;;;;;5.80;2.35;;;10.00;84.50;;;;;;5089625;28;20028;-60
2023/01/03 13:45:14;;;;;;;3.60;1.90;;;10.00;84.30;;;;;;5088906;28;20008;-59
2023/01/03 13:47:50;;;;;;;4.28;1.88;;;10.00;84.10;;;;;;5072106;28;20057;-59
2023/01/03 13:50:31;;;;;;;2.50;1.48;;;9.90;84.10;;;;;;5066661;28;20039;-68
2023/01/03 13:53:24;;;;;;;1.90;1.65;;;9.90;83.90;;;;;;5090167;28;20442;-68
2023/01/03 13:55:59;;;;;;;3.72;1.45;;;10.00;84.30;;;;;;5092122;28;20134;-59
2023/01/03 13:58:42;;;;;;;2.28;1.60;;;10.00;83.10;;;;;;5074524;28;20062;-59
2023/01/03 14:01:38;;;;;;;2.00;1.17;;;10.00;83.00;;;;;;5095093;28;20123;-59
2023/01/03 14:04:26;;;;;;;2.22;1.67;;;10.00;82.90;;;;;;5076330;28;20028;-60
2023/01/03 14:07:04;;;;;;;2.88;1.52;;;10.10;82.40;;;;;;5093003;28;20039;-68
2023/01/03 14:09:36;;;;;;;2.35;1.35;;;10.10;82.50;;;;;;5096015;28;20107;-59
2023/01/03 14:12:48;;;;;;;1.75;1.35;;;10.20;82.50;;;;;;5085643;28;20020;-68
2023/01/03 14:15:20;;;;;;;6.50;1.20;;;10.20;81.70;;;;;;5091877;28;20032;-64
2023/01/03 14:17:48;;;;;;;1.80;1.37;;;10.20;81.70;;;;;;5080307;28;20024;-68
2023/01/03 14:20:30;;;;;;;3.10;1.55;;;10.20;81.40;;;;;;5079706;28;20510;-68
2023/01/03 14:23:01;;;;;;;2.67;1.40;;;10.20;81.30;;;;;;5089811;28;20078;-68
2023/01/03 14:25:33;;;;;;;1.13;1.00;;;10.20;81.10;;;;;;5100303;28;20032;-69